createdAt,value
2019-04-27T00:00:28.510Z,0.00
2019-04-27T00:01:27.543Z,0.00
2019-04-27T00:02:27.561Z,0.00
2019-04-27T00:03:27.537Z,0.00
2019-04-27T00:04:27.505Z,0.00
2019-04-27T00:05:32.297Z,0.00
2019-04-27T00:06:28.486Z,0.00
2019-04-27T00:07:27.489Z,0.00
2019-04-27T00:08:28.474Z,0.00
2019-04-27T00:09:28.465Z,0.00
2019-04-27T00:10:28.677Z,0.00
2019-04-27T00:11:27.431Z,0.00
2019-04-27T00:12:27.440Z,0.00
2019-04-27T00:13:27.451Z,0.00
2019-04-27T00:14:27.395Z,0.00
2019-04-27T00:15:31.341Z,0.00
2019-04-27T00:16:28.372Z,0.00
2019-04-27T00:17:45.053Z,0.00
2019-04-27T00:18:28.351Z,0.00
2019-04-27T00:19:31.438Z,0.00
2019-04-27T00:20:27.326Z,0.00
2019-04-27T00:21:27.315Z,0.00
2019-04-27T00:22:27.336Z,0.00
2019-04-27T00:23:27.898Z,0.00
2019-04-27T00:24:27.287Z,0.00
2019-04-27T00:25:27.268Z,0.00
2019-04-27T00:26:27.260Z,0.00
2019-04-27T00:27:27.247Z,0.00
2019-04-27T00:28:27.262Z,0.00
2019-04-27T00:29:27.224Z,0.00
2019-04-27T00:30:27.219Z,0.00
2019-04-27T00:31:27.207Z,0.00
2019-04-27T00:32:27.200Z,0.00
2019-04-27T00:33:27.485Z,0.00
2019-04-27T00:34:27.178Z,0.00
2019-04-27T00:35:27.159Z,0.00
2019-04-27T00:36:27.148Z,0.00
2019-04-27T00:37:27.142Z,0.00
2019-04-27T00:38:27.143Z,0.00
2019-04-27T00:39:27.120Z,0.00
2019-04-27T00:40:27.109Z,0.00
2019-04-27T00:41:27.085Z,0.00
2019-04-27T00:42:27.079Z,0.00
2019-04-27T00:43:27.139Z,0.00
2019-04-27T00:44:27.056Z,0.00
2019-04-27T00:45:27.050Z,0.00
2019-04-27T00:46:27.043Z,0.00
2019-04-27T00:47:27.020Z,0.00
2019-04-27T00:48:27.030Z,0.00
2019-04-27T00:49:27.005Z,0.00
2019-04-27T00:50:26.992Z,0.00
2019-04-27T00:51:26.997Z,0.00
2019-04-27T00:52:26.965Z,0.00
2019-04-27T00:53:27.033Z,0.00
2019-04-27T00:54:26.946Z,0.00
2019-04-27T07:55:34.947Z,292.50
2019-04-27T07:56:34.911Z,298.12
2019-04-27T07:57:34.907Z,286.88
2019-04-27T07:58:34.912Z,286.88
2019-04-27T07:59:34.883Z,275.62
2019-04-27T08:00:34.877Z,270.00
2019-04-27T08:01:34.913Z,270.00
2019-04-27T08:02:34.844Z,264.38
2019-04-27T08:03:34.847Z,264.38
2019-04-27T08:04:34.826Z,258.75
2019-04-27T08:05:34.843Z,270.00
2019-04-27T08:06:34.826Z,275.62
2019-04-27T08:07:34.816Z,281.25
2019-04-27T08:08:34.772Z,275.62
2019-04-27T08:09:34.787Z,286.88
2019-04-27T08:10:34.788Z,292.50
2019-04-27T08:11:34.757Z,303.75
2019-04-27T08:12:34.730Z,326.25
2019-04-27T08:13:34.717Z,326.25
2019-04-27T08:14:34.705Z,331.88
2019-04-27T08:15:34.711Z,326.25
2019-04-27T08:16:34.685Z,326.25
2019-04-27T08:17:34.683Z,348.75
2019-04-27T08:18:34.660Z,360.00
2019-04-27T08:19:34.657Z,371.25
2019-04-27T08:20:34.654Z,376.88
2019-04-27T08:21:43.553Z,371.25
2019-04-27T08:22:35.614Z,365.62
2019-04-27T08:23:34.603Z,360.00
2019-04-27T08:24:34.604Z,354.38
2019-04-27T08:25:34.600Z,348.75
2019-04-27T08:26:34.595Z,343.12
2019-04-27T08:27:34.581Z,348.75
2019-04-27T08:28:34.549Z,354.38
2019-04-27T08:29:34.537Z,360.00
2019-04-27T08:30:34.543Z,360.00
2019-04-27T08:31:34.534Z,360.00
2019-04-27T08:32:34.508Z,360.00
2019-04-27T08:33:34.497Z,365.62
2019-04-27T08:34:34.490Z,388.12
2019-04-27T08:35:34.523Z,393.75
2019-04-27T08:36:34.482Z,382.50
2019-04-27T08:37:34.446Z,376.88
2019-04-27T08:38:34.451Z,405.00
2019-04-27T08:39:34.430Z,421.88
2019-04-27T08:40:34.413Z,433.12
2019-04-27T08:41:34.431Z,433.12
2019-04-27T08:42:34.395Z,433.12
2019-04-27T08:43:34.383Z,433.12
2019-04-27T08:44:34.361Z,450.00
2019-04-27T08:45:34.371Z,461.25
2019-04-27T08:46:34.382Z,461.25
2019-04-27T08:47:34.352Z,461.25
2019-04-27T08:48:36.921Z,466.88
2019-04-27T08:49:34.311Z,455.62
2019-04-27T08:50:34.299Z,461.25
2019-04-27T08:51:34.301Z,455.62
2019-04-27T08:52:34.273Z,444.38
2019-04-27T08:53:34.265Z,478.12
2019-04-27T08:54:34.252Z,489.38
2019-04-27T08:55:34.245Z,500.62
2019-04-27T08:56:34.255Z,523.12
2019-04-27T08:57:34.214Z,500.62
2019-04-27T08:58:34.209Z,455.62
2019-04-27T08:59:34.198Z,511.88
2019-04-27T09:00:34.185Z,562.50
2019-04-27T09:01:34.203Z,708.75
2019-04-27T09:02:44.153Z,697.50
2019-04-27T09:03:35.144Z,624.38
2019-04-27T09:04:34.137Z,585.00
2019-04-27T09:05:34.121Z,585.00
2019-04-27T09:06:34.138Z,573.75
2019-04-27T09:07:34.111Z,568.12
2019-04-27T09:08:34.112Z,573.75
2019-04-27T09:09:34.084Z,618.75
2019-04-27T09:10:34.066Z,658.12
2019-04-27T09:11:34.074Z,703.12
2019-04-27T09:12:34.044Z,703.12
2019-04-27T09:13:34.035Z,658.12
2019-04-27T09:14:34.034Z,652.50
2019-04-27T09:15:34.030Z,635.62
2019-04-27T09:16:34.024Z,635.62
2019-04-27T09:17:33.990Z,641.25
2019-04-27T09:18:33.982Z,551.25
2019-04-27T09:19:33.989Z,478.12
2019-04-27T09:20:33.959Z,472.50
2019-04-27T09:21:33.962Z,540.00
2019-04-27T09:22:33.931Z,585.00
2019-04-27T09:23:33.926Z,590.62
2019-04-27T09:24:33.915Z,607.50
2019-04-27T09:25:33.911Z,579.38
2019-04-27T09:26:33.917Z,500.62
2019-04-27T09:27:33.876Z,483.75
2019-04-27T09:28:33.883Z,506.25
2019-04-27T09:29:33.855Z,461.25
2019-04-27T09:30:33.854Z,371.25
2019-04-27T09:31:33.854Z,393.75
2019-04-27T09:32:33.823Z,399.38
2019-04-27T09:33:33.806Z,371.25
2019-04-27T09:34:33.806Z,348.75
2019-04-27T09:35:35.569Z,410.62
2019-04-27T09:36:33.803Z,444.38
2019-04-27T09:37:33.796Z,478.12
2019-04-27T09:38:35.656Z,472.50
2019-04-27T09:39:35.757Z,466.88
2019-04-27T09:40:33.743Z,461.25
2019-04-27T09:41:33.733Z,478.12
2019-04-27T09:42:33.705Z,489.38
2019-04-27T09:43:33.689Z,489.38
2019-04-27T09:44:33.683Z,506.25
2019-04-27T09:45:33.701Z,506.25
2019-04-27T09:46:33.709Z,489.38
2019-04-27T09:47:33.714Z,511.88
2019-04-27T09:48:33.640Z,517.50
2019-04-27T09:49:33.631Z,495.00
2019-04-27T09:50:35.932Z,489.38
2019-04-27T09:51:33.632Z,483.75
2019-04-27T09:52:33.610Z,506.25
2019-04-27T09:53:33.599Z,500.62
2019-04-27T09:54:33.598Z,523.12
2019-04-27T09:55:33.563Z,556.88
2019-04-27T09:56:33.556Z,585.00
2019-04-27T09:57:33.553Z,630.00
2019-04-27T09:58:33.526Z,691.88
2019-04-27T09:59:33.510Z,720.00
2019-04-27T10:00:33.503Z,731.25
2019-04-27T10:01:33.516Z,753.75
2019-04-27T10:02:33.598Z,781.88
2019-04-27T10:03:33.469Z,810.00
2019-04-27T10:04:33.470Z,725.62
2019-04-27T10:05:33.446Z,748.12
2019-04-27T10:06:33.442Z,871.88
2019-04-27T10:07:33.457Z,933.75
2019-04-27T10:08:33.411Z,787.50
2019-04-27T10:09:33.403Z,832.50
2019-04-27T10:10:33.390Z,1108.12
2019-04-27T10:11:33.378Z,1130.62
2019-04-27T10:12:34.443Z,798.75
2019-04-27T10:13:33.354Z,838.12
2019-04-27T10:14:33.355Z,894.38
2019-04-27T10:15:33.353Z,967.50
2019-04-27T10:16:33.344Z,984.38
2019-04-27T10:17:33.333Z,1321.88
2019-04-27T10:18:33.303Z,1063.12
2019-04-27T10:19:33.300Z,1063.12
2019-04-27T10:20:38.292Z,978.75
2019-04-27T10:21:34.264Z,945.00
2019-04-27T10:22:41.202Z,916.88
2019-04-27T10:23:34.240Z,821.25
2019-04-27T10:24:33.232Z,798.75
2019-04-27T10:25:33.227Z,900.00
2019-04-27T10:26:33.218Z,990.00
2019-04-27T10:27:33.218Z,916.88
2019-04-27T10:28:33.196Z,894.38
2019-04-27T10:29:33.178Z,793.12
2019-04-27T10:30:33.160Z,697.50
2019-04-27T10:31:33.187Z,708.75
2019-04-27T10:32:33.159Z,725.62
2019-04-27T10:33:33.164Z,697.50
2019-04-27T10:34:33.122Z,742.50
2019-04-27T10:35:33.107Z,714.38
2019-04-27T10:36:33.094Z,765.00
2019-04-27T10:37:33.105Z,826.88
2019-04-27T10:38:33.118Z,838.12
2019-04-27T10:39:33.071Z,950.62
2019-04-27T10:40:33.059Z,1051.88
2019-04-27T10:41:33.042Z,1130.62
2019-04-27T10:42:33.052Z,1321.88
2019-04-27T10:43:33.023Z,1186.88
2019-04-27T10:44:32.999Z,1181.25
2019-04-27T10:45:32.994Z,1327.50
2019-04-27T10:46:32.978Z,1181.25
2019-04-27T10:47:32.998Z,1023.75
2019-04-27T10:48:32.956Z,1423.12
2019-04-27T10:49:32.945Z,1423.12
2019-04-27T10:50:33.909Z,2587.50
2019-04-27T10:51:32.927Z,2295.00
2019-04-27T10:52:32.916Z,2463.75
2019-04-27T10:53:32.929Z,1035.00
2019-04-27T10:54:32.891Z,1080.00
2019-04-27T10:55:32.934Z,2986.88
2019-04-27T10:56:32.870Z,2160.00
2019-04-27T10:57:32.888Z,3971.25
2019-04-27T10:58:32.847Z,2818.12
2019-04-27T10:59:32.841Z,3313.12
2019-04-27T11:00:32.826Z,2874.38
2019-04-27T11:01:32.811Z,1822.50
2019-04-27T11:02:32.822Z,2210.62
2019-04-27T11:03:32.808Z,1040.62
2019-04-27T11:04:32.780Z,2176.88
2019-04-27T11:05:32.774Z,1721.25
2019-04-27T11:06:32.767Z,1541.25
2019-04-27T11:07:32.764Z,1603.12
2019-04-27T11:08:32.740Z,1845.00
2019-04-27T11:09:32.725Z,1265.62
2019-04-27T11:10:32.719Z,860.62
2019-04-27T11:11:32.701Z,438.75
2019-04-27T11:12:32.714Z,371.25
2019-04-27T11:13:32.686Z,343.12
2019-04-27T11:14:32.677Z,466.88
2019-04-27T11:15:32.655Z,568.12
2019-04-27T11:16:32.650Z,607.50
2019-04-27T11:17:32.654Z,601.88
2019-04-27T11:18:32.637Z,630.00
2019-04-27T11:19:32.615Z,900.00
2019-04-27T11:20:32.639Z,1721.25
2019-04-27T11:21:32.590Z,1614.38
2019-04-27T11:22:32.604Z,2131.88
2019-04-27T11:23:32.579Z,2441.25
2019-04-27T11:24:32.563Z,1620.00
2019-04-27T11:25:32.553Z,1620.00
2019-04-27T11:26:32.536Z,2531.25
2019-04-27T11:27:32.564Z,1608.75
2019-04-27T11:28:32.511Z,1215.00
2019-04-27T11:29:32.523Z,1530.00
2019-04-27T11:30:32.490Z,990.00
2019-04-27T11:31:32.481Z,1063.12
2019-04-27T11:32:32.546Z,748.12
2019-04-27T11:33:32.457Z,731.25
2019-04-27T11:34:32.447Z,708.75
2019-04-27T11:35:32.447Z,613.12
2019-04-27T11:36:32.512Z,607.50
2019-04-27T11:37:32.436Z,669.38
2019-04-27T11:38:32.473Z,714.38
2019-04-27T11:39:32.411Z,2368.12
2019-04-27T11:40:32.384Z,2356.88
2019-04-27T11:41:32.370Z,1856.25
2019-04-27T11:42:32.389Z,1935.00
2019-04-27T11:43:32.508Z,2070.00
2019-04-27T11:44:32.515Z,2002.50
2019-04-27T11:45:32.325Z,6654.38
2019-04-27T11:46:32.330Z,2548.12
2019-04-27T11:47:32.330Z,2711.25
2019-04-27T11:48:32.291Z,3420.00
2019-04-27T11:49:32.335Z,2356.88
2019-04-27T11:50:35.649Z,3605.62
2019-04-27T11:51:32.292Z,2171.25
2019-04-27T11:52:32.271Z,3020.62
2019-04-27T11:53:32.260Z,3380.62
2019-04-27T11:54:32.992Z,3296.25
2019-04-27T11:55:32.220Z,3054.38
2019-04-27T11:56:32.235Z,2480.62
2019-04-27T11:57:32.208Z,3937.50
2019-04-27T11:58:34.888Z,3318.75
2019-04-27T11:59:32.167Z,3346.88
2019-04-27T12:00:32.164Z,2221.88
2019-04-27T12:01:32.152Z,2002.50
2019-04-27T12:02:32.181Z,4831.88
2019-04-27T12:03:32.157Z,2092.50
2019-04-27T12:04:32.136Z,736.88
2019-04-27T12:05:32.153Z,641.25
2019-04-27T12:06:32.102Z,658.12
2019-04-27T12:07:32.105Z,607.50
2019-04-27T12:08:32.091Z,748.12
2019-04-27T12:09:32.075Z,720.00
2019-04-27T12:10:32.075Z,545.62
2019-04-27T12:11:32.080Z,455.62
2019-04-27T12:12:32.029Z,731.25
2019-04-27T12:13:32.040Z,1215.00
2019-04-27T12:14:32.009Z,1215.00
2019-04-27T12:15:32.015Z,1102.50
2019-04-27T12:16:31.990Z,1473.75
2019-04-27T12:17:31.973Z,995.62
2019-04-27T12:18:32.010Z,1158.75
2019-04-27T12:19:31.948Z,821.25
2019-04-27T12:20:31.940Z,815.62
2019-04-27T12:21:31.974Z,860.62
2019-04-27T12:22:31.952Z,675.00
2019-04-27T12:23:35.553Z,579.38
2019-04-27T12:24:32.892Z,646.88
2019-04-27T12:25:31.890Z,736.88
2019-04-27T12:26:31.882Z,871.88
2019-04-27T12:27:31.910Z,1035.00
2019-04-27T12:28:31.898Z,905.62
2019-04-27T12:29:31.839Z,922.50
2019-04-27T12:30:31.854Z,928.12
2019-04-27T12:31:31.822Z,961.88
2019-04-27T12:32:31.820Z,815.62
2019-04-27T12:33:31.845Z,798.75
2019-04-27T12:34:31.785Z,725.62
2019-04-27T12:35:31.777Z,787.50
2019-04-27T12:36:31.773Z,894.38
2019-04-27T12:37:31.756Z,911.25
2019-04-27T12:38:31.762Z,686.25
2019-04-27T12:39:31.727Z,635.62
2019-04-27T12:40:31.726Z,973.12
2019-04-27T12:41:31.715Z,545.62
2019-04-27T12:42:31.701Z,635.62
2019-04-27T12:43:31.721Z,405.00
2019-04-27T12:44:31.684Z,337.50
2019-04-27T12:45:31.671Z,298.12
2019-04-27T12:46:31.654Z,275.62
2019-04-27T12:47:31.648Z,253.12
2019-04-27T12:48:31.657Z,219.38
2019-04-27T12:49:31.667Z,196.88
2019-04-27T12:50:31.632Z,185.62
2019-04-27T12:51:31.606Z,163.12
2019-04-27T12:52:31.589Z,151.88
2019-04-27T12:53:31.608Z,135.00
2019-04-27T12:54:31.748Z,112.50
2019-04-27T12:55:31.562Z,106.88
2019-04-27T12:56:31.541Z,101.25
2019-04-27T12:57:31.573Z,95.62
2019-04-27T12:58:31.522Z,95.62
2019-04-27T12:59:31.543Z,106.88
2019-04-27T13:00:31.521Z,112.50
2019-04-27T13:01:31.499Z,123.75
2019-04-27T13:02:31.470Z,140.62
2019-04-27T13:03:31.466Z,163.12
2019-04-27T13:04:31.471Z,180.00
2019-04-27T13:05:31.436Z,230.62
2019-04-27T13:06:31.503Z,270.00
2019-04-27T13:07:31.423Z,281.25
2019-04-27T13:08:31.439Z,286.88
2019-04-27T13:09:31.416Z,275.62
2019-04-27T13:10:31.402Z,241.88
2019-04-27T13:11:31.389Z,225.00
2019-04-27T13:12:31.367Z,219.38
2019-04-27T13:13:31.347Z,213.75
2019-04-27T13:14:31.357Z,213.75
2019-04-27T13:15:31.351Z,196.88
2019-04-27T13:16:31.325Z,191.25
2019-04-27T13:17:31.336Z,180.00
2019-04-27T13:18:31.309Z,168.75
2019-04-27T13:19:31.283Z,180.00
2019-04-27T13:20:31.372Z,157.50
2019-04-27T13:21:31.264Z,157.50
2019-04-27T13:22:31.334Z,157.50
2019-04-27T13:23:31.240Z,146.25
2019-04-27T13:24:31.240Z,135.00
2019-04-27T13:25:31.239Z,129.38
2019-04-27T13:26:31.199Z,123.75
2019-04-27T13:27:31.213Z,112.50
2019-04-27T13:28:31.186Z,112.50
2019-04-27T13:29:31.175Z,106.88
2019-04-27T13:30:31.187Z,101.25
2019-04-27T13:31:31.145Z,101.25
2019-04-27T13:32:31.134Z,101.25
2019-04-27T13:33:31.138Z,101.25
2019-04-27T13:34:31.115Z,106.88
2019-04-27T13:35:39.456Z,106.88
2019-04-27T13:36:33.090Z,112.50
2019-04-27T13:37:31.078Z,118.12
2019-04-27T13:38:31.067Z,118.12
2019-04-27T13:39:31.056Z,129.38
2019-04-27T13:40:31.063Z,129.38
2019-04-27T13:41:32.942Z,129.38
2019-04-27T13:42:31.063Z,129.38
2019-04-27T13:43:31.009Z,129.38
2019-04-27T13:44:31.003Z,123.75
2019-04-27T13:45:30.990Z,123.75
2019-04-27T13:46:30.992Z,129.38
2019-04-27T13:47:30.971Z,135.00
2019-04-27T13:48:30.950Z,140.62
2019-04-27T13:49:30.938Z,146.25
2019-04-27T13:50:31.015Z,151.88
2019-04-27T13:51:30.937Z,163.12
2019-04-27T13:52:30.935Z,163.12
2019-04-27T13:53:32.494Z,174.38
2019-04-27T13:54:30.887Z,174.38
2019-04-27T13:55:30.886Z,163.12
2019-04-27T13:56:30.855Z,157.50
2019-04-27T13:57:30.871Z,180.00
2019-04-27T13:58:31.065Z,208.12
2019-04-27T13:59:31.840Z,213.75
2019-04-27T14:00:30.814Z,219.38
2019-04-27T14:01:30.813Z,225.00
2019-04-27T14:02:32.600Z,225.00
2019-04-27T14:03:30.797Z,225.00
2019-04-27T14:04:30.772Z,219.38
2019-04-27T14:05:30.766Z,213.75
2019-04-27T14:06:30.792Z,202.50
2019-04-27T14:07:30.771Z,208.12
2019-04-27T14:08:30.736Z,208.12
2019-04-27T14:09:30.802Z,213.75
2019-04-27T14:10:30.702Z,241.88
2019-04-27T14:11:30.709Z,258.75
2019-04-27T14:12:31.074Z,264.38
2019-04-27T14:13:30.681Z,275.62
2019-04-27T14:14:30.674Z,281.25
2019-04-27T14:15:30.646Z,281.25
2019-04-27T14:16:30.645Z,264.38
2019-04-27T14:17:30.647Z,247.50
2019-04-27T14:18:30.616Z,219.38
2019-04-27T14:19:30.630Z,191.25
2019-04-27T14:20:30.605Z,168.75
2019-04-27T14:21:32.883Z,163.12
2019-04-27T14:22:31.600Z,163.12
2019-04-27T14:23:30.577Z,174.38
2019-04-27T14:24:32.009Z,180.00
2019-04-27T14:25:30.564Z,180.00
2019-04-27T14:26:31.052Z,185.62
2019-04-27T14:27:30.514Z,191.25
2019-04-27T14:28:30.518Z,185.62
2019-04-27T14:29:30.483Z,180.00
2019-04-27T14:30:30.477Z,185.62
2019-04-27T14:31:30.495Z,185.62
2019-04-27T14:32:30.454Z,191.25
2019-04-27T14:33:30.491Z,196.88
2019-04-27T14:34:30.432Z,202.50
2019-04-27T14:35:31.264Z,219.38
2019-04-27T14:36:30.418Z,225.00
2019-04-27T14:37:30.427Z,225.00
2019-04-27T14:38:30.408Z,236.25
2019-04-27T14:39:30.371Z,258.75
2019-04-27T14:40:30.376Z,281.25
2019-04-27T14:41:30.353Z,320.62
2019-04-27T14:42:30.356Z,320.62
2019-04-27T14:43:30.359Z,309.38
2019-04-27T14:44:30.316Z,303.75
2019-04-27T14:45:30.308Z,298.12
2019-04-27T14:46:30.576Z,281.25
2019-04-27T14:47:30.328Z,264.38
2019-04-27T14:48:30.701Z,258.75
2019-04-27T14:49:30.263Z,264.38
2019-04-27T14:50:30.256Z,264.38
2019-04-27T14:51:30.239Z,270.00
2019-04-27T14:52:30.237Z,275.62
2019-04-27T14:53:30.266Z,286.88
2019-04-27T14:54:44.994Z,292.50
2019-04-27T14:55:32.011Z,298.12
2019-04-27T14:56:30.185Z,292.50
2019-04-27T14:57:30.199Z,286.88
2019-04-27T14:58:30.208Z,292.50
2019-04-27T14:59:30.248Z,315.00
2019-04-27T15:00:30.658Z,315.00
2019-04-27T15:01:30.127Z,337.50
2019-04-27T15:02:30.123Z,343.12
2019-04-27T15:03:30.272Z,528.75
2019-04-27T15:04:31.318Z,410.62
2019-04-27T15:05:30.163Z,433.12
2019-04-27T15:06:30.278Z,596.25
2019-04-27T15:07:30.093Z,534.38
2019-04-27T15:08:30.080Z,399.38
2019-04-27T15:09:30.122Z,365.62
2019-04-27T15:10:33.009Z,365.62
2019-04-27T15:11:31.563Z,348.75
2019-04-27T15:12:32.130Z,343.12
2019-04-27T15:13:30.053Z,343.12
2019-04-27T15:14:31.072Z,354.38
2019-04-27T15:15:32.569Z,354.38
2019-04-27T15:16:29.968Z,365.62
2019-04-27T15:17:29.957Z,450.00
2019-04-27T15:18:29.954Z,489.38
2019-04-27T15:19:29.953Z,466.88
2019-04-27T15:20:31.078Z,517.50
2019-04-27T15:21:32.678Z,472.50
2019-04-27T15:22:30.887Z,360.00
2019-04-27T15:23:30.837Z,405.00
2019-04-27T15:24:31.195Z,326.25
2019-04-27T15:25:35.033Z,298.12
2019-04-27T15:26:30.891Z,286.88
2019-04-27T15:27:30.856Z,275.62
2019-04-27T15:28:32.063Z,264.38
2019-04-27T15:29:30.195Z,264.38
2019-04-27T15:30:29.800Z,275.62
2019-04-27T15:31:29.828Z,258.75
2019-04-27T15:32:33.590Z,286.88
2019-04-27T15:33:29.772Z,292.50
2019-04-27T15:34:29.821Z,270.00
2019-04-27T15:35:29.743Z,303.75
2019-04-27T15:36:29.729Z,270.00
2019-04-27T15:37:33.938Z,286.88
2019-04-27T15:38:30.734Z,264.38
2019-04-27T15:39:30.619Z,281.25
2019-04-27T15:40:29.685Z,281.25
2019-04-27T15:41:31.558Z,416.25
2019-04-27T15:42:29.695Z,596.25
2019-04-27T15:43:30.916Z,376.88
2019-04-27T15:44:29.665Z,337.50
2019-04-27T15:45:29.621Z,354.38
2019-04-27T15:46:33.728Z,360.00
2019-04-27T15:47:33.479Z,376.88
2019-04-27T15:48:30.717Z,354.38
2019-04-27T15:49:29.591Z,371.25
2019-04-27T15:50:32.247Z,770.62
2019-04-27T15:51:29.563Z,1175.62
2019-04-27T15:52:33.057Z,534.38
2019-04-27T15:53:29.545Z,528.75
2019-04-27T15:54:32.291Z,416.25
2019-04-27T15:55:34.570Z,348.75
2019-04-27T15:56:34.707Z,343.12
2019-04-27T15:57:29.495Z,360.00
2019-04-27T15:58:29.489Z,466.88
2019-04-27T15:59:30.919Z,613.12
2019-04-27T16:00:30.492Z,950.62
2019-04-27T16:01:35.629Z,1181.25
2019-04-27T16:02:30.429Z,1096.88
2019-04-27T16:03:31.430Z,635.62
2019-04-27T16:04:29.406Z,343.12
2019-04-27T16:05:32.641Z,292.50
2019-04-27T16:06:30.408Z,275.62
2019-04-27T16:07:31.719Z,275.62
2019-04-27T16:08:29.364Z,275.62
2019-04-27T16:09:29.361Z,281.25
2019-04-27T16:10:32.863Z,298.12
2019-04-27T16:11:30.352Z,286.88
2019-04-27T16:12:29.338Z,286.88
2019-04-27T16:13:32.915Z,286.88
2019-04-27T16:14:29.295Z,275.62
2019-04-27T16:15:29.971Z,275.62
2019-04-27T16:16:33.351Z,270.00
2019-04-27T16:17:31.904Z,275.62
2019-04-27T16:18:32.621Z,275.62
2019-04-27T16:19:29.246Z,258.75
2019-04-27T16:20:33.637Z,253.12
2019-04-27T16:21:31.520Z,247.50
2019-04-27T16:22:29.219Z,241.88
2019-04-27T16:23:33.565Z,236.25
2019-04-27T16:24:32.217Z,213.75
2019-04-27T16:25:31.580Z,196.88
2019-04-27T16:26:30.183Z,196.88
2019-04-27T16:27:31.439Z,196.88
2019-04-27T16:28:30.162Z,185.62
2019-04-27T16:29:31.570Z,185.62
2019-04-27T16:30:29.113Z,163.12
2019-04-27T16:31:32.054Z,157.50
2019-04-27T16:32:29.102Z,151.88
2019-04-27T16:33:29.100Z,146.25
2019-04-27T16:34:32.978Z,151.88
2019-04-27T16:35:30.076Z,151.88
2019-04-27T16:36:29.119Z,146.25
2019-04-27T16:37:29.039Z,140.62
2019-04-27T16:38:33.570Z,129.38
2019-04-27T16:39:30.023Z,129.38
2019-04-27T16:40:30.148Z,129.38
2019-04-27T16:41:29.025Z,123.75
2019-04-27T16:42:28.977Z,129.38
2019-04-27T16:43:32.620Z,123.75
2019-04-27T16:44:28.967Z,123.75
2019-04-27T16:45:28.963Z,123.75
2019-04-27T16:46:28.946Z,129.38
2019-04-27T16:47:28.966Z,135.00
2019-04-27T16:48:34.331Z,129.38
2019-04-27T16:49:29.919Z,123.75
2019-04-27T16:50:28.971Z,118.12
2019-04-27T16:51:29.789Z,118.12
2019-04-27T16:52:30.144Z,112.50
2019-04-27T16:53:30.073Z,112.50
2019-04-27T16:54:29.852Z,123.75
2019-04-27T16:55:34.075Z,123.75
2019-04-27T16:56:29.917Z,135.00
2019-04-27T16:57:32.423Z,123.75
2019-04-27T16:58:31.869Z,123.75
2019-04-27T16:59:43.590Z,118.12
2019-04-27T17:00:30.511Z,112.50
2019-04-27T17:01:30.470Z,112.50
2019-04-27T17:02:28.797Z,118.12
2019-04-27T17:03:31.628Z,106.88
2019-04-27T17:04:29.394Z,101.25
2019-04-27T17:05:34.276Z,90.00
2019-04-27T17:06:29.862Z,84.38
2019-04-27T17:07:30.258Z,84.38
2019-04-27T17:08:29.681Z,78.75
2019-04-27T17:09:29.216Z,78.75
2019-04-27T17:10:29.152Z,78.75
2019-04-27T17:11:29.787Z,78.75
2019-04-27T17:12:32.475Z,78.75
2019-04-27T17:13:30.591Z,84.38
2019-04-27T17:14:34.816Z,84.38
2019-04-27T17:15:30.038Z,84.38
2019-04-27T17:16:32.222Z,78.75
2019-04-27T17:17:29.613Z,78.75
2019-04-27T17:18:30.930Z,78.75
2019-04-27T17:19:30.583Z,78.75
2019-04-27T17:20:29.909Z,73.12
2019-04-27T17:21:28.889Z,73.12
2019-04-27T17:22:28.699Z,73.12
2019-04-27T17:23:31.241Z,67.50
2019-04-27T17:24:31.901Z,67.50
2019-04-27T17:25:33.069Z,67.50
2019-04-27T17:26:29.476Z,67.50
2019-04-27T17:27:31.214Z,67.50
2019-04-27T17:28:28.494Z,73.12
2019-04-27T17:29:28.473Z,73.12
2019-04-27T17:30:31.004Z,73.12
2019-04-27T17:31:29.420Z,73.12
2019-04-27T17:32:30.390Z,73.12
2019-04-27T17:33:29.429Z,67.50
2019-04-27T17:34:28.640Z,67.50
2019-04-27T17:35:28.573Z,61.88
2019-04-27T17:36:29.259Z,61.88
2019-04-27T17:37:32.228Z,61.88
2019-04-27T17:38:30.493Z,56.25
2019-04-27T17:39:29.813Z,56.25
2019-04-27T17:40:29.929Z,56.25
2019-04-27T17:41:29.318Z,56.25
2019-04-27T17:42:30.621Z,50.62
2019-04-27T17:43:28.880Z,50.62
2019-04-27T17:44:28.815Z,45.00
2019-04-27T17:45:30.464Z,45.00
2019-04-27T17:46:29.268Z,39.38
2019-04-27T17:47:29.917Z,39.38
2019-04-27T17:48:28.868Z,39.38
2019-04-27T17:49:28.222Z,39.38
2019-04-27T17:50:29.864Z,45.00
2019-04-27T17:51:30.685Z,45.00
2019-04-27T17:52:29.104Z,45.00
2019-04-27T17:53:29.881Z,45.00
2019-04-27T17:54:28.987Z,39.38
2019-04-27T17:55:28.188Z,39.38
2019-04-27T17:56:35.953Z,33.75
2019-04-27T17:57:30.163Z,33.75
2019-04-27T17:58:28.656Z,33.75
2019-04-27T17:59:28.118Z,28.12
2019-04-27T18:00:28.226Z,28.12
2019-04-27T18:01:30.100Z,22.50
2019-04-27T18:02:29.313Z,22.50
2019-04-27T18:03:28.494Z,22.50
2019-04-27T18:04:28.748Z,16.88
2019-04-27T18:05:28.559Z,16.88
2019-04-27T18:06:29.713Z,16.88
2019-04-27T18:07:30.119Z,11.25
2019-04-27T18:08:29.129Z,11.25
2019-04-27T18:09:29.050Z,11.25
2019-04-27T18:10:28.280Z,5.62
2019-04-27T18:11:28.739Z,5.62
2019-04-27T18:12:28.497Z,5.62
2019-04-27T18:13:28.854Z,5.62
2019-04-27T18:14:32.542Z,5.62
2019-04-27T18:15:28.756Z,0.00
2019-04-27T18:16:31.103Z,0.00
2019-04-27T18:17:28.901Z,0.00
2019-04-27T18:18:28.107Z,0.00
2019-04-27T18:19:28.307Z,0.00
2019-04-27T18:20:28.944Z,0.00
2019-04-27T18:21:28.344Z,0.00
2019-04-27T18:22:28.200Z,0.00
2019-04-27T18:23:27.831Z,0.00
2019-04-27T18:24:29.121Z,0.00
2019-04-27T18:25:28.607Z,0.00
2019-04-27T18:26:29.516Z,0.00
2019-04-27T18:27:27.802Z,0.00
2019-04-27T18:28:28.368Z,0.00
2019-04-27T18:29:30.879Z,0.00
2019-04-27T18:30:28.237Z,0.00
2019-04-27T18:31:28.912Z,0.00
2019-04-27T18:32:28.739Z,0.00
2019-04-27T18:33:28.406Z,0.00
2019-04-27T18:34:28.623Z,0.00
2019-04-27T18:35:29.490Z,0.00
2019-04-27T18:36:29.438Z,0.00
2019-04-27T18:37:28.290Z,0.00
2019-04-27T18:38:30.899Z,0.00
2019-04-27T18:39:28.650Z,0.00
2019-04-27T18:40:32.068Z,0.00
2019-04-27T18:41:28.824Z,0.00
2019-04-27T18:42:31.145Z,0.00
2019-04-27T18:43:28.595Z,0.00
2019-04-27T18:44:30.510Z,0.00
2019-04-27T18:45:28.413Z,0.00
2019-04-27T18:46:28.284Z,0.00
2019-04-27T18:47:31.055Z,0.00
2019-04-27T18:48:27.571Z,0.00
2019-04-27T18:49:30.253Z,0.00
2019-04-27T18:50:28.195Z,0.00
2019-04-27T18:51:28.801Z,0.00
2019-04-27T18:52:27.528Z,0.00
2019-04-27T18:53:28.852Z,0.00
2019-04-27T18:54:28.786Z,0.00
2019-04-27T18:55:29.357Z,0.00
2019-04-27T18:56:29.069Z,0.00
2019-04-27T18:57:29.999Z,0.00
2019-04-27T18:58:27.435Z,0.00
2019-04-27T18:59:28.853Z,0.00
2019-04-27T19:00:27.982Z,0.00
2019-04-27T19:01:28.928Z,0.00
2019-04-27T19:02:28.815Z,0.00
2019-04-27T19:03:31.044Z,0.00
2019-04-27T19:04:28.151Z,0.00
2019-04-27T19:05:39.279Z,0.00
2019-04-27T19:06:29.014Z,0.00
2019-04-27T19:07:28.989Z,0.00
2019-04-27T19:08:28.154Z,0.00
2019-04-27T19:09:27.354Z,0.00
2019-04-27T19:10:28.168Z,0.00
2019-04-27T19:11:29.082Z,0.00
2019-04-27T19:12:28.714Z,0.00
2019-04-27T19:13:27.292Z,0.00
2019-04-27T19:14:28.256Z,0.00
2019-04-27T19:15:28.576Z,0.00
2019-04-27T19:16:29.038Z,0.00
2019-04-27T19:17:28.221Z,0.00
2019-04-27T19:18:27.240Z,0.00
2019-04-27T19:19:28.074Z,0.00
2019-04-27T19:20:28.808Z,0.00
2019-04-27T19:21:28.838Z,0.00
2019-04-27T19:22:27.993Z,0.00
2019-04-27T19:23:27.159Z,0.00
2019-04-27T19:24:28.168Z,0.00
2019-04-27T19:25:28.794Z,0.00
2019-04-27T19:26:28.894Z,0.00
2019-04-27T19:27:27.927Z,0.00
2019-04-27T19:28:28.318Z,0.00
2019-04-27T19:29:29.120Z,0.00
2019-04-27T19:30:28.048Z,0.00
2019-04-27T19:31:29.014Z,0.00
2019-04-27T19:32:28.126Z,0.00
2019-04-27T19:33:29.135Z,0.00
2019-04-27T19:34:28.674Z,0.00
2019-04-27T19:35:28.671Z,0.00
2019-04-27T19:36:27.972Z,0.00
2019-04-27T19:37:28.652Z,0.00